Time;durP1;ratioP1;P1;durP2;ratioP2;P2;SDS_P1;SDS_P2;PMS_P1;PMS_P2;Temp;Humidity;BMP_temperature;BMP_pressure;BME280_temperature;BME280_humidity;BME280_pressure;Samples;Min_cycle;Max_cycle;Signal;HPM_P1;HPM_P2
2023/10/09 00:02:02;;;;;;;10.63;3.90;;;;;;;3.60;57.02;101031.40;1714673;83;26288;-66
2023/10/09 00:04:29;;;;;;;7.47;3.80;;;;;;;3.54;56.88;101032.36;1725348;82;25490;-64
2023/10/09 00:06:59;;;;;;;11.20;4.25;;;;;;;3.46;57.53;101030.12;1725808;82;27344;-64
2023/10/09 00:11:56;;;;;;;10.10;3.65;;;;;;;3.34;58.17;101031.00;1725781;83;25434;-64
2023/10/09 00:14:19;;;;;;;9.80;4.10;;;;;;;3.30;57.91;101023.19;1724936;83;26267;-64
2023/10/09 00:17:01;;;;;;;7.30;3.35;;;;;;;3.26;58.15;101026.05;1725824;83;25508;-64
2023/10/09 00:19:37;;;;;;;8.85;3.60;;;;;;;3.21;58.56;101023.81;1723989;83;27551;-64
2023/10/09 00:21:50;;;;;;;7.00;3.42;;;;;;;3.20;58.81;101016.84;1717590;82;25416;-64
2023/10/09 00:24:23;;;;;;;7.80;3.95;;;;;;;3.16;58.53;101017.84;1725807;83;25383;-64
2023/10/09 00:27:11;;;;;;;8.83;3.90;;;;;;;3.14;58.59;101012.74;1725790;83;26312;-64
2023/10/09 00:29:22;;;;;;;6.45;3.62;;;;;;;3.10;58.63;101022.81;1721879;82;25485;-64
2023/10/09 00:31:55;;;;;;;9.45;4.22;;;;;;;3.08;58.77;101023.59;1725744;82;27317;-64
2023/10/09 00:34:19;;;;;;;9.93;4.20;;;;;;;3.03;59.39;101015.48;1725189;83;25469;-64
2023/10/09 00:36:52;;;;;;;10.75;3.80;;;;;;;3.01;60.00;101010.37;1725783;83;25470;-64
2023/10/09 00:39:41;;;;;;;6.50;3.72;;;;;;;2.97;60.13;101003.36;1725770;82;26266;-64
2023/10/09 00:41:48;;;;;;;11.50;4.00;;;;;;;2.97;60.43;101004.70;1722131;83;25676;-65
2023/10/09 00:44:14;;;;;;;5.87;3.35;;;;;;;2.96;60.28;101003.09;1725772;82;28086;-65
2023/10/09 00:46:43;;;;;;;10.43;4.05;;;;;;;2.96;60.83;101006.27;1725689;83;25478;-65
2023/10/09 00:49:10;;;;;;;9.70;3.85;;;;;;;2.95;60.47;100996.66;1726037;82;25455;-65
2023/10/09 00:51:42;;;;;;;9.48;3.77;;;;;;;2.96;60.31;100986.23;1725728;83;25671;-65
2023/10/09 00:54:15;;;;;;;10.23;3.75;;;;;;;2.95;60.68;100981.95;1725491;82;25419;-65
2023/10/09 00:56:52;;;;;;;7.92;3.77;;;;;;;2.92;60.71;100983.23;1725798;83;26903;-65
2023/10/09 00:59:19;;;;;;;6.55;3.80;;;;;;;2.89;60.71;100980.23;1724855;82;25480;-65
2023/10/09 01:01:56;;;;;;;9.13;3.85;;;;;;;2.86;61.21;100973.52;1725372;83;25470;-65
2023/10/09 01:04:26;;;;;;;7.45;4.03;;;;;;;2.82;61.10;100979.05;1725750;83;25683;-65
2023/10/09 01:07:07;;;;;;;10.93;4.33;;;;;;;2.80;60.75;100977.14;1725792;83;25395;-64
2023/10/09 01:09:38;;;;;;;7.15;3.77;;;;;;;2.77;61.35;100973.61;1725347;83;27408;-65
2023/10/09 01:12:05;;;;;;;9.53;3.45;;;;;;;2.77;61.65;100974.95;1701122;83;25489;-64
2023/10/09 01:14:38;;;;;;;6.62;3.70;;;;;;;2.76;61.79;100970.67;1725731;82;25424;-64
2023/10/09 01:17:08;;;;;;;5.20;3.27;;;;;;;2.76;62.08;100978.16;1700911;83;25622;-64
2023/10/09 01:19:35;;;;;;;8.05;4.00;;;;;;;2.75;62.33;100969.84;1725765;83;25430;-64
2023/10/09 01:22:12;;;;;;;6.87;3.33;;;;;;;2.76;62.31;100976.02;1725725;83;27360;-64
2023/10/09 01:24:35;;;;;;;12.78;4.12;;;;;;;2.77;62.33;100973.08;1724411;83;25491;-64
2023/10/09 01:27:00;;;;;;;10.48;4.00;;;;;;;2.78;62.10;100970.70;1725486;82;25407;-64
2023/10/09 01:29:30;;;;;;;7.75;3.60;;;;;;;2.80;62.16;100963.25;1725721;83;25629;-62
2023/10/09 01:32:00;;;;;;;5.55;3.47;;;;;;;2.80;62.63;100959.77;1732966;82;25469;-63
2023/10/09 01:34:44;;;;;;;7.60;2.75;;;;;;;2.83;62.89;100950.45;1736016;82;28381;-63
2023/10/09 01:37:19;;;;;;;4.92;3.00;;;;;;;2.85;62.83;100947.04;1736368;82;25486;-64
2023/10/09 01:39:52;;;;;;;5.08;2.95;;;;;;;2.86;62.39;100948.64;1736450;82;25438;-64
2023/10/09 01:42:24;;;;;;;7.12;3.35;;;;;;;2.84;62.93;100948.87;1735401;82;25620;-64
2023/10/09 01:44:51;;;;;;;6.95;3.47;;;;;;;2.82;62.81;100952.86;1736477;82;25439;-64
2023/10/09 01:47:18;;;;;;;5.53;3.17;;;;;;;2.78;63.13;100941.84;1736381;82;28025;-64
2023/10/09 01:49:48;;;;;;;7.40;3.22;;;;;;;2.75;63.09;100940.45;1736337;82;25428;-64
2023/10/09 01:52:16;;;;;;;7.97;3.52;;;;;;;2.76;63.40;100933.27;1736314;81;25421;-64
2023/10/09 01:54:48;;;;;;;7.65;3.25;;;;;;;2.75;63.62;100920.95;1736314;82;25681;-64
2023/10/09 01:57:15;;;;;;;7.70;3.75;;;;;;;2.73;63.64;100918.52;1735667;82;25476;-64
2023/10/09 01:59:47;;;;;;;7.20;3.27;;;;;;;2.75;63.34;100928.42;1736433;82;27341;-64
2023/10/09 02:02:26;;;;;;;5.72;3.17;;;;;;;2.74;63.31;100918.81;1736320;82;25704;-64
2023/10/09 02:07:33;;;;;;;11.03;3.98;;;;;;;2.75;63.62;100916.41;1654061;86;25602;-64
2023/10/09 02:09:57;;;;;;;9.05;3.60;;;;;;;2.72;64.01;100910.20;1654110;86;25114;-64
2023/10/09 02:12:23;;;;;;;6.20;4.03;;;;;;;2.70;64.32;100920.86;1653698;86;27343;-64
2023/10/09 02:14:55;;;;;;;8.93;3.72;;;;;;;2.66;64.46;100933.09;1651762;86;25575;-64
2023/10/09 02:17:20;;;;;;;8.68;4.10;;;;;;;2.63;64.54;100933.03;1651915;85;25485;-64
2023/10/09 02:19:49;;;;;;;8.03;3.77;;;;;;;2.61;64.42;100936.47;1651777;86;26145;-64
2023/10/09 02:22:17;;;;;;;8.68;4.03;;;;;;;2.59;64.83;100927.36;1651986;86;25530;-64
2023/10/09 02:27:43;;;;;;;6.35;3.92;;;;;;;2.56;65.08;100927.03;1651779;86;25543;-64
2023/10/09 02:29:48;;;;;;;7.60;4.10;;;;;;;2.54;65.33;100927.27;1651822;85;25501;-64
2023/10/09 02:32:24;;;;;;;8.43;4.22;;;;;;;2.55;65.41;100928.07;1651702;86;25629;-64
2023/10/09 02:34:46;;;;;;;7.35;4.00;;;;;;;2.54;65.58;100920.59;1651793;85;25497;-64
2023/10/09 02:37:13;;;;;;;7.80;4.00;;;;;;;2.54;65.55;100927.80;1651912;86;27339;-64
2023/10/09 02:39:48;;;;;;;8.55;4.03;;;;;;;2.56;65.77;100923.83;1651881;86;25454;-64
2023/10/09 02:42:23;;;;;;;9.63;3.72;;;;;;;2.57;65.85;100910.77;1651949;86;25534;-64
2023/10/09 02:44:49;;;;;;;12.33;4.30;;;;;;;2.58;65.99;100917.72;1688236;82;26284;-64
2023/10/09 02:47:30;;;;;;;7.83;4.12;;;;;;;2.59;66.31;100915.34;1736611;82;25394;-64
2023/10/09 02:50:00;;;;;;;10.25;4.15;;;;;;;2.62;66.29;100916.70;1736297;82;27338;-64
2023/10/09 02:52:33;;;;;;;8.00;4.08;;;;;;;2.64;66.43;100911.95;1736232;81;25672;-64
2023/10/09 02:54:59;;;;;;;10.45;4.67;;;;;;;2.67;66.43;100909.31;1719201;83;25431;-64
2023/10/09 02:57:23;;;;;;;8.85;3.98;;;;;;;2.66;66.31;100911.72;1728677;83;25680;-64
2023/10/09 02:59:51;;;;;;;9.63;4.05;;;;;;;2.69;66.38;100920.06;1729252;83;25407;-64
2023/10/09 03:02:18;;;;;;;11.85;3.95;;;;;;;2.71;66.39;100913.14;1729222;83;27319;-64
2023/10/09 03:04:45;;;;;;;8.63;3.95;;;;;;;2.71;66.48;100916.61;1729125;83;25434;-64
2023/10/09 03:07:13;;;;;;;7.70;3.80;;;;;;;2.73;66.67;100909.70;1729232;83;25412;-64
2023/10/09 03:09:40;;;;;;;9.13;4.12;;;;;;;2.72;66.73;100900.85;1729182;83;25648;-64
2023/10/09 03:12:09;;;;;;;7.78;4.37;;;;;;;2.71;66.66;100911.81;1729245;83;25419;-64
2023/10/09 03:14:38;;;;;;;8.33;4.20;;;;;;;2.71;66.97;100903.80;1736650;82;29391;-64
2023/10/09 03:17:05;;;;;;;9.60;4.83;;;;;;;2.70;66.87;100911.52;1721241;83;25414;-64
2023/10/09 03:19:37;;;;;;;13.30;5.92;;;;;;;2.71;67.02;100919.83;1729246;83;25430;-64
2023/10/09 03:22:10;;;;;;;10.43;4.70;;;;;;;2.73;66.68;100915.05;1729286;83;26125;-64
2023/10/09 03:24:37;;;;;;;9.73;4.53;;;;;;;2.72;67.08;100893.38;1729384;83;25405;-64
2023/10/09 03:27:04;;;;;;;9.68;4.55;;;;;;;2.72;67.11;100894.17;1736668;82;27545;-64
2023/10/09 03:29:31;;;;;;;9.73;4.37;;;;;;;2.72;67.12;100886.16;1721199;83;25475;-64
2023/10/09 03:31:57;;;;;;;7.90;4.40;;;;;;;2.74;67.19;100888.59;1731968;82;25512;-64
2023/10/09 03:34:23;;;;;;;9.73;4.55;;;;;;;2.74;67.03;100884.58;1734470;82;25628;-64
2023/10/09 03:37:03;;;;;;;8.30;4.12;;;;;;;2.72;67.11;100883.48;1734457;82;25438;-64
2023/10/09 03:42:00;;;;;;;8.45;4.92;;;;;;;2.71;67.39;100901.92;1734355;82;25481;-64
2023/10/09 03:44:29;;;;;;;10.63;4.40;;;;;;;2.72;67.52;100902.19;1734428;82;25407;-64
2023/10/09 03:46:56;;;;;;;8.73;5.00;;;;;;;2.71;67.48;100909.94;1734455;82;25645;-64
2023/10/09 03:49:26;;;;;;;9.38;4.00;;;;;;;2.74;67.70;100899.28;1734445;82;25500;-64
2023/10/09 03:51:53;;;;;;;7.67;3.87;;;;;;;2.73;67.54;100903.82;1734425;82;27350;-64
2023/10/09 03:54:24;;;;;;;8.33;4.08;;;;;;;2.74;67.73;100897.44;1736392;82;25680;-64
2023/10/09 03:56:51;;;;;;;8.23;4.10;;;;;;;2.74;67.74;100899.28;1735879;81;25404;-64
2023/10/09 03:59:20;;;;;;;;;;;;;;;2.75;67.73;100892.36;1739068;82;25605;-64
2023/10/09 04:01:50;;;;;;;;;;;;;;;2.78;67.84;100899.09;1739120;82;25476;-64
2023/10/09 04:04:16;;;;;;;;;;;;;;;2.77;67.78;100898.27;1739044;82;27310;-64
2023/10/09 04:06:42;;;;;;;8.20;4.08;;;;;;;2.76;67.98;100899.34;1736424;82;33356;-64
2023/10/09 04:09:27;;;;;;;9.23;4.17;;;;;;;2.79;68.00;100904.20;1736487;82;25453;-64
2023/10/09 04:11:43;;;;;;;7.58;3.80;;;;;;;2.82;68.00;100899.42;1733658;82;25605;-64
2023/10/09 04:14:24;;;;;;;8.40;4.30;;;;;;;2.85;68.01;100894.40;1736504;82;25399;-64
2023/10/09 04:16:52;;;;;;;10.80;4.95;;;;;;;2.88;68.12;100893.09;1732366;82;27349;-64
2023/10/09 04:19:25;;;;;;;10.13;4.75;;;;;;;2.90;68.02;100885.66;1731684;82;25543;-63
2023/10/09 04:21:55;;;;;;;8.28;4.28;;;;;;;2.90;67.91;100889.14;1717609;82;25458;-63
2023/10/09 04:26:45;;;;;;;11.60;4.20;;;;;;;2.89;68.00;100888.04;1734420;82;25486;-63
2023/10/09 04:29:26;;;;;;;7.53;3.95;;;;;;;2.88;68.05;100882.40;1734388;82;28028;-64
2023/10/09 04:31:51;;;;;;;7.75;4.50;;;;;;;2.89;68.19;100876.81;1733114;82;25403;-63
2023/10/09 04:39:47;;;;;;;9.93;4.25;;;;;;;2.90;68.19;100869.09;1733231;82;25451;-64
2023/10/09 04:42:26;;;;;;;8.65;4.53;;;;;;;2.90;68.19;100867.76;1733157;82;27323;-63
2023/10/09 04:47:36;;;;;;;10.68;4.58;;;;;;;2.90;68.28;100858.94;1733185;82;25450;-64
2023/10/09 05:02:56;;;;;;;7.85;4.12;;;;;;;2.96;68.42;100841.91;1739855;82;25641;-63
2023/10/09 05:16:25;;;;;;;10.30;4.25;;;;;;;3.01;68.50;100825.16;1739931;82;26277;-63
2023/10/09 05:19:28;;;;;;;7.60;4.35;;;;;;;3.01;68.58;100808.58;1739128;82;25497;-63
2023/10/09 05:32:15;;;;;;;8.10;4.67;;;;;;;3.01;68.88;100795.75;1738982;82;25471;-63
2023/10/09 05:34:33;;;;;;;11.05;4.40;;;;;;;3.01;69.17;100804.57;1734314;82;27325;-63
2023/10/09 05:37:25;;;;;;;9.45;4.40;;;;;;;3.02;69.18;100804.86;1736346;82;25666;-63
2023/10/09 05:39:41;;;;;;;7.28;3.80;;;;;;;3.03;69.03;100807.83;1724528;82;25485;-63
2023/10/09 05:42:17;;;;;;;10.50;4.70;;;;;;;3.06;69.13;100806.52;1736423;82;25598;-63
2023/10/09 05:45:38;;;;;;;5.05;3.62;;;;;;;3.06;69.44;100802.50;1736242;82;25454;-63
2023/10/09 05:47:29;;;;;;;9.00;4.62;;;;;;;3.07;69.23;100801.46;1735704;82;28043;-61
2023/10/09 05:50:06;;;;;;;10.20;5.25;;;;;;;3.09;69.36;100800.69;1736370;82;25539;-62
2023/10/09 05:52:56;;;;;;;8.63;4.85;;;;;;;3.11;69.48;100802.04;1732036;81;25411;-63
2023/10/09 06:19:12;;;;;;;11.43;4.97;;;;;;;3.38;69.75;100779.13;1736453;82;25398;-63
2023/10/09 06:29:50;;;;;;;8.95;4.75;;;;;;;3.58;69.81;100787.94;1651873;86;25482;-62
2023/10/09 06:34:57;;;;;;;10.15;4.53;;;;;;;3.72;69.61;100798.52;1651801;86;25730;-64
2023/10/09 06:45:16;;;;;;;10.53;5.37;;;;;;;3.96;69.35;100794.23;1653441;86;25519;-63
2023/10/09 06:47:55;;;;;;;11.15;4.35;;;;;;;4.01;69.28;100798.30;1653381;86;25631;-64
2023/10/09 06:50:26;;;;;;;12.37;5.83;;;;;;;4.02;69.00;100795.88;1652165;86;25209;-63
2023/10/09 06:58:55;;;;;;;11.15;5.67;;;;;;;4.24;68.92;100803.85;1868490;76;34709;-64
2023/10/09 07:01:30;;;;;;;11.50;5.87;;;;;;;4.22;68.65;100800.12;1757207;81;25571;-65
2023/10/09 07:04:10;;;;;;;10.85;5.75;;;;;;;4.24;68.52;100798.50;1776211;80;27548;-62
2023/10/09 07:17:15;;;;;;;13.08;5.42;;;;;;;4.71;68.97;100793.00;1777130;80;28273;-63
2023/10/09 07:19:56;;;;;;;13.83;6.40;;;;;;;4.81;68.80;100795.75;1774164;80;25504;-63
2023/10/09 07:22:16;;;;;;;16.15;6.42;;;;;;;4.95;68.43;100794.22;1772411;80;25623;-62
2023/10/09 07:24:43;;;;;;;11.75;5.20;;;;;;;5.28;69.16;100797.64;1774281;80;25587;-62
2023/10/09 07:27:10;;;;;;;11.93;6.00;;;;;;;5.78;69.22;100798.09;1774530;80;25559;-62
2023/10/09 07:29:47;;;;;;;10.00;5.78;;;;;;;6.03;67.33;100798.72;1776442;80;28169;-63
2023/10/09 07:32:12;;;;;;;9.60;5.55;;;;;;;6.20;66.96;100797.14;1773616;80;26136;-63
2023/10/09 07:34:52;;;;;;;10.20;5.40;;;;;;;6.27;65.91;100795.53;1775092;80;25797;-63
2023/10/09 07:37:03;;;;;;;13.35;5.85;;;;;;;6.39;65.95;100789.35;1772484;80;25853;-61
2023/10/09 07:39:34;;;;;;;9.05;5.45;;;;;;;6.58;65.70;100796.33;1776287;80;25629;-63
2023/10/09 07:42:01;;;;;;;11.08;5.45;;;;;;;6.72;65.54;100801.45;1775906;80;27835;-63
2023/10/09 07:44:37;;;;;;;9.55;4.85;;;;;;;6.88;65.15;100804.11;1775803;80;25412;-64
2023/10/09 07:49:58;;;;;;;10.00;5.12;;;;;;;7.11;64.48;100798.12;1757032;81;25450;-63
2023/10/09 07:52:26;;;;;;;9.65;5.00;;;;;;;7.20;63.65;100802.43;1776605;80;25606;-63
2023/10/09 07:55:01;;;;;;;14.40;5.12;;;;;;;7.31;63.76;100794.33;1756943;81;27479;-62
2023/10/09 07:57:38;;;;;;;8.23;4.83;;;;;;;7.43;63.19;100804.23;1776206;80;25843;-63
2023/10/09 08:00:00;;;;;;;9.08;4.90;;;;;;;7.48;62.75;100803.66;1774959;80;25448;-62
2023/10/09 08:02:32;;;;;;;8.63;4.53;;;;;;;7.60;62.56;100797.95;1775834;80;25538;-63
2023/10/09 08:05:18;;;;;;;8.10;4.47;;;;;;;7.73;62.72;100788.48;1777134;80;25404;-63
2023/10/09 08:07:34;;;;;;;13.60;7.70;;;;;;;7.93;62.76;100778.66;1772517;80;27558;-61
2023/10/09 08:17:53;;;;;;;7.35;4.62;;;;;;;8.56;60.10;100761.77;1776409;80;25451;-62
2023/10/09 08:20:26;;;;;;;9.78;4.65;;;;;;;8.61;59.25;100769.81;1776268;80;27370;-62
2023/10/09 08:22:56;;;;;;;8.50;4.05;;;;;;;8.58;59.47;100763.11;1776355;80;25894;-62
2023/10/09 08:25:26;;;;;;;9.83;4.80;;;;;;;8.67;59.46;100764.64;1756292;81;25416;-63
2023/10/09 08:30:28;;;;;;;8.53;4.22;;;;;;;8.88;58.85;100767.14;1667049;86;25795;-63
2023/10/09 08:35:47;;;;;;;8.58;3.87;;;;;;;9.23;59.42;100762.42;1612510;89;25794;-64
2023/10/09 08:38:33;;;;;;;7.55;4.10;;;;;;;9.38;58.81;100768.19;1612311;89;25511;-63
2023/10/09 08:40:46;;;;;;;10.50;3.95;;;;;;;9.49;58.09;100772.37;1606777;89;25438;-63
2023/10/09 08:43:22;;;;;;;7.55;3.75;;;;;;;9.95;59.37;100759.59;1612382;89;25820;-64
2023/10/09 08:46:03;;;;;;;10.90;3.92;;;;;;;10.61;58.69;100758.30;1612280;89;28277;-64
2023/10/09 08:48:33;;;;;;;8.23;4.55;;;;;;;11.13;57.88;100751.37;1612296;89;25509;-65
2023/10/09 08:51:06;;;;;;;7.75;3.95;;;;;;;11.50;56.13;100753.59;1612280;89;25660;-65
2023/10/09 08:53:33;;;;;;;5.90;3.65;;;;;;;11.87;54.95;100752.50;1612200;89;25611;-65
2023/10/09 08:55:59;;;;;;;7.50;2.87;;;;;;;11.97;53.94;100755.57;1612331;89;25655;-65
2023/10/09 08:58:36;;;;;;;6.70;3.50;;;;;;;12.24;53.70;100758.72;1614427;88;28513;-65
2023/10/09 09:01:00;;;;;;;5.17;2.90;;;;;;;12.55;53.19;100753.06;1615649;88;25705;-63
2023/10/09 09:03:38;;;;;;;6.70;2.95;;;;;;;12.85;52.04;100762.32;1616406;88;25573;-63
2023/10/09 09:06:07;;;;;;;6.12;3.17;;;;;;;12.81;49.64;100751.29;1616442;88;25567;-63
2023/10/09 09:08:38;;;;;;;8.63;3.15;;;;;;;12.55;48.79;100746.28;1640190;87;25728;-64
2023/10/09 09:11:17;;;;;;;4.80;2.62;;;;;;;12.48;49.43;100754.33;1647805;87;28062;-64
2023/10/09 09:14:12;;;;;;;5.53;2.92;;;;;;;12.87;50.20;100741.09;1738193;82;25834;-64
2023/10/09 09:16:44;;;;;;;5.80;2.75;;;;;;;13.82;50.50;100734.28;1736664;82;25630;-64
2023/10/09 09:21:45;;;;;;;6.33;3.37;;;;;;;15.45;48.78;100712.63;1738318;82;25238;-64
2023/10/09 09:27:09;;;;;;;6.37;2.92;;;;;;;16.47;46.23;100707.71;1738173;82;25469;-65
2023/10/09 09:29:41;;;;;;;4.65;2.80;;;;;;;16.32;44.58;100711.09;1736317;82;25206;-64
2023/10/09 09:32:20;;;;;;;8.08;3.52;;;;;;;16.26;44.17;100692.78;1738387;82;25545;-65
2023/10/09 09:34:54;;;;;;;10.85;7.22;;;;;;;16.16;43.73;100707.64;1738357;82;25597;-67
2023/10/09 09:37:31;;;;;;;6.05;3.27;;;;;;;16.14;43.19;100700.36;1738162;82;28094;-67
2023/10/09 09:43:04;;;;;;;6.25;2.90;;;;;;;16.48;43.32;100702.49;1738302;82;25562;-70
2023/10/09 09:45:28;;;;;;;7.37;2.27;;;;;;;16.93;43.27;100691.28;1735390;82;25637;-71
2023/10/09 09:48:05;;;;;;;6.15;2.40;;;;;;;17.08;42.03;100685.12;1738389;82;25215;-69
2023/10/09 09:50:29;;;;;;;5.25;2.20;;;;;;;17.11;40.93;100676.23;1737041;82;27030;-70
2023/10/09 09:52:58;;;;;;;6.40;1.80;;;;;;;17.29;41.05;100669.92;1738224;82;25562;-70
2023/10/09 09:55:41;;;;;;;5.05;1.75;;;;;;;17.74;41.07;100676.27;1738258;82;25729;-69
2023/10/09 09:58:08;;;;;;;;;;;;;;;18.27;41.03;100667.37;1751831;80;25608;-68
2023/10/09 10:00:45;;;;;;;1.60;1.05;;;;;;;18.87;39.99;100662.40;1774739;80;25688;-67
2023/10/09 10:03:18;;;;;;;6.00;1.50;;;;;;;19.46;38.82;100656.44;1770599;80;28472;-69
2023/10/09 10:05:50;;;;;;;2.22;1.30;;;;;;;19.61;37.20;100658.88;1775912;80;25894;-66
2023/10/09 10:08:34;;;;;;;4.58;1.30;;;;;;;19.57;36.77;100659.39;1755849;81;25614;-70
2023/10/09 10:11:06;;;;;;;3.65;1.55;;;;;;;19.52;35.52;100652.82;1776155;80;26115;-69
2023/10/09 10:13:47;;;;;;;3.33;1.62;;;;;;;19.19;35.27;100655.48;1747767;80;25234;-66
2023/10/09 10:16:20;;;;;;;4.08;1.77;;;;;;;18.88;34.37;100653.59;1774234;80;26936;-65
2023/10/09 10:19:10;;;;;;;5.42;2.05;;;;;;;18.36;34.33;100654.09;1776279;79;25508;-63
2023/10/09 10:21:40;;;;;;;9.13;2.08;;;;;;;17.89;34.73;100648.77;1775985;80;25674;-64
2023/10/09 10:24:32;;;;;;;5.70;2.50;;;;;;;17.67;35.36;100641.34;1776385;79;25552;-65
2023/10/09 10:27:26;;;;;;;24.87;15.50;;;;;;;17.44;35.57;100630.71;1776466;80;25483;-65
2023/10/09 10:30:24;;;;;;;3.92;2.33;;;;;;;17.16;35.22;100625.98;1756409;81;27542;-65
2023/10/09 10:32:57;;;;;;;7.17;2.72;;;;;;;16.56;35.50;100616.13;1755623;81;25627;-64
2023/10/09 10:38:36;;;;;;;5.42;2.15;;;;;;;15.86;35.99;100613.64;1731032;81;25781;-65
2023/10/09 10:41:13;;;;;;;3.62;2.00;;;;;;;15.50;36.55;100608.84;1755706;81;25559;-64
2023/10/09 10:46:30;;;;;;;8.75;2.67;;;;;;;14.51;36.73;100595.95;1756154;81;25605;-65
2023/10/09 10:51:39;;;;;;;;;;;;;;;13.93;38.14;100596.09;1710960;83;25643;-63
2023/10/09 10:56:58;;;;;;;5.85;2.72;;;;;;;14.03;39.39;100590.31;1738045;82;27834;-63
2023/10/09 10:59:25;;;;;;;4.10;2.58;;;;;;;14.06;39.64;100589.63;1735728;81;25595;-63
2023/10/09 11:02:13;;;;;;;5.55;2.50;;;;;;;14.02;39.30;100587.34;1737835;82;25682;-63
2023/10/09 11:07:09;;;;;;;5.30;2.42;;;;;;;13.70;39.44;100584.05;1737850;82;25504;-63
2023/10/09 11:15:57;;;;;;;5.75;2.67;;;;;;;13.49;39.69;100592.66;1737876;82;25493;-64
2023/10/09 11:18:26;;;;;;;7.53;2.27;;;;;;;13.36;39.98;100584.33;1734786;82;25841;-61
2023/10/09 11:23:36;;;;;;;6.33;3.25;;;;;;;13.02;39.97;100573.66;1713266;83;27881;-64
2023/10/09 11:29:13;;;;;;;10.72;3.12;;;;;;;12.78;40.71;100570.61;1765600;80;25365;-63
2023/10/09 11:31:34;;;;;;;10.15;2.90;;;;;;;12.66;40.94;100565.80;1775128;80;25715;-63
2023/10/09 11:34:01;;;;;;;6.08;2.80;;;;;;;12.57;41.26;100564.99;1778041;80;25493;-63
2023/10/09 11:36:34;;;;;;;7.33;3.37;;;;;;;12.42;41.42;100560.23;1778071;80;27617;-63
2023/10/09 11:39:22;;;;;;;5.55;2.60;;;;;;;12.27;41.58;100563.37;1777945;80;25644;-62
2023/10/09 11:41:49;;;;;;;7.45;2.83;;;;;;;12.12;41.87;100557.80;1776121;80;25502;-62
2023/10/09 11:44:33;;;;;;;4.65;2.22;;;;;;;11.98;42.27;100561.17;1777993;80;26554;-62
2023/10/09 11:47:23;;;;;;;6.92;2.80;;;;;;;11.90;42.64;100551.84;1749886;80;25863;-64
2023/10/09 11:52:46;;;;;;;7.03;2.85;;;;;;;11.79;42.69;100540.48;1778067;80;26430;-66
2023/10/09 11:55:14;;;;;;;4.95;2.10;;;;;;;11.68;42.85;100539.95;1775427;80;25452;-65
2023/10/09 11:57:42;;;;;;;5.75;2.65;;;;;;;11.65;42.96;100541.92;1778044;80;25689;-65
2023/10/09 12:00:29;;;;;;;4.60;2.70;;;;;;;11.61;42.80;100538.78;1790985;78;25515;-66
2023/10/09 12:03:04;;;;;;;5.30;2.20;;;;;;;11.59;43.09;100529.60;1829983;77;27836;-65
2023/10/09 12:05:27;;;;;;;7.42;2.33;;;;;;;11.65;43.05;100524.31;1829362;77;25971;-66
2023/10/09 12:07:57;;;;;;;6.40;3.92;;;;;;;11.62;42.82;100524.13;1829955;78;25791;-66
2023/10/09 12:10:26;;;;;;;3.87;2.42;;;;;;;11.68;42.69;100530.47;1829963;78;26525;-69
2023/10/09 12:12:58;;;;;;;3.72;1.92;;;;;;;11.73;42.49;100530.34;1829967;77;25423;-65
2023/10/09 12:15:36;;;;;;;5.47;3.62;;;;;;;11.72;42.36;100529.29;1829986;78;27489;-65
2023/10/09 12:17:55;;;;;;;4.55;2.50;;;;;;;11.64;42.21;100520.55;1828501;77;25778;-65
2023/10/09 12:20:32;;;;;;;3.98;2.00;;;;;;;11.61;42.40;100526.59;1829418;78;25822;-65
2023/10/09 12:22:51;;;;;;;6.60;2.30;;;;;;;11.56;42.46;100526.97;1825241;77;25940;-64
2023/10/09 12:25:19;;;;;;;4.53;2.17;;;;;;;11.50;42.27;100525.49;1829833;78;25372;-64
2023/10/09 12:27:45;;;;;;;4.55;1.82;;;;;;;11.40;42.57;100517.05;1829870;78;27544;-65
2023/10/09 12:30:26;;;;;;;5.55;2.30;;;;;;;11.29;42.68;100506.78;1829799;78;25557;-64
2023/10/09 12:32:46;;;;;;;3.40;1.98;;;;;;;11.23;43.21;100505.32;1827940;77;25553;-65
2023/10/09 12:35:17;;;;;;;6.35;2.37;;;;;;;11.23;43.45;100510.17;1829790;78;25540;-65
2023/10/09 12:37:42;;;;;;;4.37;2.30;;;;;;;11.25;43.95;100512.58;1828573;77;25414;-65
2023/10/09 12:40:12;;;;;;;5.37;2.40;;;;;;;11.33;44.21;100509.14;1829879;77;27819;-64
2023/10/09 12:42:38;;;;;;;5.37;2.33;;;;;;;11.38;44.45;100516.57;1829832;77;25368;-64
2023/10/09 12:45:12;;;;;;;4.20;2.50;;;;;;;11.44;44.54;100524.03;1829783;77;25376;-65
2023/10/09 12:47:38;;;;;;;7.85;3.83;;;;;;;11.54;44.90;100523.78;1829817;77;25531;-64
2023/10/09 12:50:13;;;;;;;7.12;2.90;;;;;;;11.70;45.33;100521.47;1829831;78;25577;-64
2023/10/09 12:52:37;;;;;;;7.22;2.83;;;;;;;11.89;45.53;100519.09;1829380;77;27978;-65
2023/10/09 12:55:19;;;;;;;6.35;2.52;;;;;;;12.08;45.37;100521.02;1829680;78;25555;-64
2023/10/09 12:57:40;;;;;;;6.35;2.87;;;;;;;12.21;45.19;100521.22;1829146;77;25379;-67
2023/10/09 13:00:25;;;;;;;6.95;3.42;;;;;;;12.23;44.87;100525.23;1829622;78;25509;-66
2023/10/09 13:02:44;;;;;;;3.92;2.50;;;;;;;12.26;44.96;100522.43;1827679;77;25406;-65
2023/10/09 13:05:24;;;;;;;5.17;2.85;;;;;;;12.32;45.19;100519.83;1829833;77;27472;-66
2023/10/09 13:07:39;;;;;;;3.87;2.70;;;;;;;12.36;45.29;100514.57;1828091;77;25578;-66
2023/10/09 13:10:12;;;;;;;7.00;3.20;;;;;;;12.36;45.04;100508.61;1829831;77;25572;-64
2023/10/09 13:12:40;;;;;;;4.47;3.17;;;;;;;12.35;45.07;100507.00;1829725;78;25831;-65
2023/10/09 13:15:13;;;;;;;6.65;3.02;;;;;;;12.30;45.24;100510.65;1828709;77;25478;-64
2023/10/09 13:17:41;;;;;;;8.15;3.55;;;;;;;12.31;45.64;100509.55;1829779;78;27471;-64
2023/10/09 13:20:13;;;;;;;7.05;3.20;;;;;;;12.35;45.87;100502.14;1829608;77;25419;-64
2023/10/09 13:22:46;;;;;;;8.00;3.83;;;;;;;12.35;45.86;100505.64;1829762;78;25577;-62
2023/10/09 13:25:16;;;;;;;6.78;4.00;;;;;;;12.31;45.83;100503.33;1829782;77;25587;-67
2023/10/09 13:27:50;;;;;;;8.08;4.45;;;;;;;12.20;45.98;100499.30;1829901;78;25541;-68
2023/10/09 13:30:21;;;;;;;7.45;4.60;;;;;;;12.09;46.39;100492.81;1829498;77;27578;-68
2023/10/09 13:32:48;;;;;;;38.63;25.25;;;;;;;12.02;46.73;100486.23;1829080;77;25442;-68
2023/10/09 13:35:13;;;;;;;9.45;5.78;;;;;;;11.98;46.77;100492.05;1828483;77;25551;-67
2023/10/09 13:37:39;;;;;;;6.25;3.90;;;;;;;11.89;46.84;100486.56;1830123;77;25881;-65
2023/10/09 13:40:09;;;;;;;8.15;3.77;;;;;;;11.89;47.25;100487.36;1829947;78;25425;-66
2023/10/09 13:42:38;;;;;;;8.30;3.92;;;;;;;11.87;47.73;100482.02;1829862;78;27580;-65
2023/10/09 13:45:15;;;;;;;6.28;4.33;;;;;;;11.78;47.61;100476.00;1829730;78;25571;-65
2023/10/09 13:47:42;;;;;;;8.75;4.90;;;;;;;11.71;47.72;100470.24;1829874;77;25394;-65
2023/10/09 13:50:13;;;;;;;10.95;4.20;;;;;;;11.66;48.28;100468.20;1829807;78;25818;-65
2023/10/09 13:52:39;;;;;;;7.20;4.37;;;;;;;11.78;49.79;100465.70;1829913;77;25574;-65
2023/10/09 13:55:19;;;;;;;7.53;4.15;;;;;;;12.07;49.68;100458.98;1829807;77;27357;-65
2023/10/09 13:57:46;;;;;;;11.25;4.50;;;;;;;12.26;48.96;100452.73;1752799;81;25794;-64
2023/10/09 14:00:33;;;;;;;8.28;4.92;;;;;;;12.33;48.47;100457.13;1752540;81;25402;-65
2023/10/09 14:02:46;;;;;;;7.10;4.10;;;;;;;12.27;48.30;100459.75;1751828;81;25809;-65
2023/10/09 14:05:14;;;;;;;9.45;5.20;;;;;;;12.18;48.36;100460.30;1752673;81;25686;-65
2023/10/09 14:07:41;;;;;;;8.45;4.95;;;;;;;12.15;48.65;100455.50;1752747;81;27824;-63
2023/10/09 14:10:17;;;;;;;7.55;4.60;;;;;;;12.19;49.41;100459.19;1752671;81;25454;-64
2023/10/09 14:12:45;;;;;;;11.73;4.78;;;;;;;12.44;49.62;100454.12;1752763;81;25504;-64
2023/10/09 14:15:16;;;;;;;10.43;4.80;;;;;;;12.64;49.67;100456.77;1752612;81;25639;-64
2023/10/09 14:17:42;;;;;;;10.25;4.70;;;;;;;12.77;48.90;100460.44;1752693;81;25662;-64
2023/10/09 14:20:31;;;;;;;11.22;4.62;;;;;;;12.86;48.94;100463.39;1752748;80;28017;-65
2023/10/09 14:23:08;;;;;;;11.50;5.25;;;;;;;12.84;48.82;100461.56;1752792;81;25537;-64
2023/10/09 14:25:39;;;;;;;9.53;4.50;;;;;;;12.92;48.95;100461.88;1752773;81;25628;-64
2023/10/09 14:28:10;;;;;;;7.70;4.90;;;;;;;13.15;49.29;100457.07;1752675;81;25782;-64
2023/10/09 14:30:42;;;;;;;13.10;5.35;;;;;;;13.33;48.79;100466.00;1752828;81;25495;-64
2023/10/09 14:33:13;;;;;;;8.50;4.92;;;;;;;13.24;48.18;100467.34;1752723;81;27968;-65
2023/10/09 14:35:45;;;;;;;8.75;4.58;;;;;;;13.19;48.03;100468.88;1813047;78;25476;-65